National Oceanic Atmosphere Administration National Weather Service Headquarters National Weather Service Headquarters
NOAA logo WFO Anchorage Scalable transition graphic NWS logo
Transition from title bar to navgation bar   Aviation Weather 21 AKST 
blankspace Home   |   Mobile   |   Social Media   |   Mesonet   |   Surface Map   |   Radar   |   Submit Storm Reports   |   News =06 GMT 

LocalForecast by City, St or Zip Code

spacer

Forecasts/Products
  Public
  Forecast Discussion
    - With Glossary
  Aviation
  Marine
  Hydrology(RFC)
  Rivers & Lakes AHPS
  Ice Desk
  TV Weather
  Fire Weather
  Avalanche
  Travel 511
  Graphical
  xml logo RSS Feeds
  Marine FTPMail

spacer

Data
  Mesonet
  Model Graphics
  Local Model
  Observations
  Marine Obs
  Satellite/Radar
  Vent Factor
  Soaring Index
  Weather Links

spacer

Climate
  PAFC Climate
  Interactive Climate
  PAFC Records
  Local
  National
  More

spacer

Outreach
  About Us
  Community Outreach
  Kids' Page
  Tour/Speaker Request
  Weather Classroom
  Social Media

spacer

Reports
  COOP Observers
  Local Storm Reports
  Spotter Page
  Submit a Storm Report

spacer

Miscellaneous
  Archived Alaska Weather Stories
  Student Career Opportunities
  Research Papers

spacer

Print Friendly/
Low Bandwidth

  Public Forecasts
  Marine Forecasts

spacer

Contact Us
  mailto pafcweb

spacer

Facebook Follow the National Weather Service in Alaska on Twitter
USA.gov is the U.S. government's official web portal to all federal, state and local government web resources and services.


 ICAO ID:   AAWU Graphics

Internet access to TAFs and METAR observations is for planning purposes only. We can not guarantee the timeliness of internet products. Before flying please get a formal pilot briefing (1-800-992-7433) and ALWAYS file a Flight Plan!Pilot briefings are provided to licensed aircraft pilots, ONLY! Others may not use the above number to obtain weather information.

Check out the Key to TAFs and METARs for help with decoding the information.

A 12 hour summary of TAFs can be found here.

PAMC TAF
PAMC 050606Z 0506/0606  00000KT 4SM -SHRASN BR BKN003 OVC035
      TEMPO 0506/0509 1 1/2SM -SHRASN BR
     FM050900 00000KT 3SM -SN BR SCT007 OVC015
     FM052100 26004KT 2SM -SN BR OVC015=


SPECI PAMC 050620Z AUTO 00000KT 3/4SM -RA BR BKN003 OVC034 01/00 A2975
     RMK AO2 P0000 T00110000 TSNO=
SPECI PAMC 050601Z AUTO 00000KT 1 1/4SM -RA BR BKN003 OVC031 01/00 A2975
     RMK AO2 P0000 T00110000 TSNO=
METAR PAMC 050553Z AUTO 00000KT 1 3/4SM -RA BR SCT003 OVC025 01/00 A2976
     RMK AO2 SLP082 P0000 60000 T00110000 10028 20006 58001
     TSNO=
PAMC 050537Z AUTO 00000KT 2SM -RA BR FEW003 OVC016 01/00 A2976=
SPECI PAMC 050527Z AUTO 00000KT 2 1/2SM -RA BR BKN003 OVC008 01/00 A2976
     RMK AO2 VIS 2V3 P0000 T00110000 TSNO=
METAR PAMC 050453Z AUTO 00000KT 10SM -RA BKN006 BKN036 OVC080 01/00
     A2976 RMK AO2 SLP083 P0000 T00110000 TSNO=
PAMC 050429Z AUTO 00000KT 9SM -RA SCT007 BKN012 OVC019 02/00 A2976=
PAMC 050418Z AUTO 00000KT 9SM -RA FEW007 OVC015 02/00 A2976=
METAR PAMC 050353Z AUTO 00000KT 10SM -RA BKN013 OVC025 02/00 A2976 RMK
     AO2 SLP083 P0000 T00170000 TSNO=
PAMC 050349Z AUTO 00000KT 10SM -RA BKN013 OVC031 02/M01 A2976=
PAMC 050339Z AUTO 00000KT 10SM -RA BKN015 BKN032 OVC055 02/00
A2976=
METAR PAMC 050253Z AUTO 17003KT 10SM -RA FEW024 OVC045 02/00 A2977
 RMK AO2 SLP086 P0000 60000 T00220000 58012 TSNO=


National Weather Service
Anchorage Forecast Office
6930 Sand Lake Road
Anchorage, Ak 99502
(907) 266-5105 M-F/7-5pm
About Us
Career Opportunities
Glossary
Disclaimer
Privacy Policy
Credits
Alaska Weather Information Line:
1-800-472-0391